Time;durP1;ratioP1;P1;durP2;ratioP2;P2;SDS_P1;SDS_P2;PMS_P1;PMS_P2;Temp;Humidity;BMP_temperature;BMP_pressure;BME280_temperature;BME280_humidity;BME280_pressure;Samples;Min_cycle;Max_cycle;Signal;HPM_P1;HPM_P2
2023/05/06 00:01:04;;;;;;;20.83;15.43;;;14.30;99.90;;;;;;5094208;28;20241;-81
2023/05/06 00:03:30;;;;;;;20.73;15.35;;;14.30;99.90;;;;;;5093138;28;20193;-79
2023/05/06 00:05:56;;;;;;;18.90;14.50;;;14.30;99.90;;;;;;5057827;28;20186;-78
2023/05/06 00:08:22;;;;;;;22.10;14.30;;;14.30;99.90;;;;;;5072926;28;20193;-79
2023/05/06 00:10:48;;;;;;;19.08;14.50;;;14.30;99.90;;;;;;5066445;28;20218;-79
2023/05/06 00:13:13;;;;;;;19.85;14.10;;;14.20;99.90;;;;;;5074377;28;20203;-80
2023/05/06 00:15:39;;;;;;;19.30;13.75;;;14.20;99.90;;;;;;5055980;28;20174;-78
2023/05/06 00:18:05;;;;;;;18.63;14.38;;;14.20;99.90;;;;;;5089748;28;20186;-79
2023/05/06 00:20:31;;;;;;;19.50;14.48;;;14.10;99.90;;;;;;5092692;28;20189;-79
2023/05/06 00:22:58;;;;;;;19.45;13.70;;;14.10;99.90;;;;;;5094445;28;20198;-79
2023/05/06 00:25:24;;;;;;;21.00;13.98;;;14.00;99.90;;;;;;5092825;28;20182;-79
2023/05/06 00:27:50;;;;;;;21.00;14.13;;;14.00;99.90;;;;;;5091734;28;20644;-79
2023/05/06 00:30:16;;;;;;;18.67;13.45;;;14.00;99.90;;;;;;5075731;28;20263;-79
2023/05/06 00:32:41;;;;;;;18.85;13.75;;;14.00;99.90;;;;;;5093734;28;20194;-78
2023/05/06 00:35:08;;;;;;;19.00;13.43;;;13.90;99.90;;;;;;5093718;28;20511;-79
2023/05/06 00:37:33;;;;;;;20.33;12.30;;;13.90;99.90;;;;;;5092508;28;20247;-79
2023/05/06 00:39:59;;;;;;;19.50;12.15;;;13.90;99.90;;;;;;5072311;28;20640;-79
2023/05/06 00:42:25;;;;;;;16.45;11.68;;;13.90;99.90;;;;;;5073420;28;20175;-79
2023/05/06 00:44:51;;;;;;;18.98;11.80;;;13.80;99.90;;;;;;5072223;28;20281;-79
2023/05/06 00:47:18;;;;;;;17.15;12.65;;;13.80;99.90;;;;;;5092614;28;20277;-79
2023/05/06 00:49:46;;;;;;;18.45;13.80;;;13.80;99.90;;;;;;5075247;28;20201;-79
2023/05/06 00:52:13;;;;;;;19.45;13.63;;;13.80;99.90;;;;;;5093442;28;20177;-79
2023/05/06 00:54:39;;;;;;;22.65;14.15;;;13.80;99.90;;;;;;5092604;28;20182;-79
2023/05/06 00:57:05;;;;;;;27.33;21.52;;;13.80;99.90;;;;;;5075540;28;20635;-78
2023/05/06 00:59:31;;;;;;;29.67;21.65;;;13.80;99.90;;;;;;5092610;28;20320;-82
2023/05/06 01:01:58;;;;;;;33.72;23.27;;;13.80;99.90;;;;;;5092323;28;20182;-78
2023/05/06 01:04:24;;;;;;;29.83;18.52;;;13.80;99.90;;;;;;5042658;28;20182;-78
2023/05/06 01:07:07;;;;;;;27.13;19.42;;;13.80;99.90;;;;;;5075519;28;20363;-79
2023/05/06 01:09:46;;;;;;;24.13;17.45;;;13.80;99.90;;;;;;5105009;28;20206;-79
2023/05/06 01:12:56;;;;;;;27.58;18.60;;;13.80;99.90;;;;;;5073287;28;20170;-79
2023/05/06 01:15:38;;;;;;;25.58;16.80;;;13.80;99.90;;;;;;5071773;28;20174;-79
2023/05/06 01:18:13;;;;;;;23.55;17.60;;;13.70;99.90;;;;;;5082620;28;20638;-79
2023/05/06 01:20:42;;;;;;;20.60;15.45;;;13.70;99.90;;;;;;5074798;28;20193;-80
2023/05/06 01:23:14;;;;;;;21.90;15.32;;;13.70;99.90;;;;;;5091621;28;20545;-83
2023/05/06 01:25:40;;;;;;;23.90;15.07;;;13.70;99.90;;;;;;5091984;28;20190;-79
2023/05/06 01:28:09;;;;;;;22.02;13.57;;;13.80;99.90;;;;;;5092088;28;20178;-79
2023/05/06 01:30:58;;;;;;;16.75;12.10;;;13.70;99.90;;;;;;5091118;28;20228;-80
2023/05/06 01:33:45;;;;;;;15.38;11.35;;;13.80;99.90;;;;;;5064816;28;20197;-80
2023/05/06 01:36:45;;;;;;;14.93;11.57;;;13.80;99.90;;;;;;5093190;28;20605;-80
2023/05/06 01:39:17;;;;;;;18.40;11.68;;;13.70;99.90;;;;;;5062507;28;20568;-78
2023/05/06 01:41:46;;;;;;;19.90;12.68;;;13.80;99.90;;;;;;5073173;28;20179;-79
2023/05/06 01:44:13;;;;;;;19.33;12.32;;;13.70;99.90;;;;;;5074293;28;20185;-79
2023/05/06 01:46:41;;;;;;;23.90;12.48;;;13.70;99.90;;;;;;5091928;28;20266;-78
2023/05/06 01:49:10;;;;;;;16.63;12.18;;;13.80;99.90;;;;;;5075022;28;20201;-78
2023/05/06 01:51:36;;;;;;;21.98;13.00;;;13.80;99.90;;;;;;5074507;28;20190;-79
2023/05/06 01:54:03;;;;;;;16.08;11.57;;;13.80;99.90;;;;;;5071564;28;20178;-79
2023/05/06 01:56:31;;;;;;;18.13;11.93;;;13.80;99.90;;;;;;5084071;28;20174;-79
2023/05/06 01:58:58;;;;;;;16.20;12.05;;;13.80;99.90;;;;;;5071212;28;20234;-78
2023/05/06 02:01:24;;;;;;;13.75;11.38;;;13.80;99.90;;;;;;5071500;28;20700;-78
2023/05/06 02:03:50;;;;;;;16.25;10.90;;;13.80;99.90;;;;;;5056517;28;20201;-78
2023/05/06 02:06:16;;;;;;;16.67;12.00;;;13.70;99.90;;;;;;5059034;28;20186;-79
2023/05/06 02:08:43;;;;;;;16.40;10.77;;;13.70;99.90;;;;;;5074295;28;20193;-80
2023/05/06 02:11:13;;;;;;;17.63;11.15;;;13.70;99.90;;;;;;5072805;28;20263;-78
2023/05/06 02:13:40;;;;;;;16.88;12.00;;;13.70;99.90;;;;;;5088330;28;20268;-79
2023/05/06 02:16:07;;;;;;;16.48;11.43;;;13.70;99.90;;;;;;5095286;28;20258;-79
2023/05/06 02:18:34;;;;;;;17.58;11.95;;;13.70;99.90;;;;;;5094972;28;20276;-80
2023/05/06 02:21:00;;;;;;;14.88;11.93;;;13.70;99.90;;;;;;5093758;28;20201;-79
2023/05/06 02:23:26;;;;;;;16.98;11.70;;;13.70;99.90;;;;;;5077529;28;20190;-80
2023/05/06 02:25:52;;;;;;;16.92;11.50;;;13.60;99.90;;;;;;5093382;28;20189;-79
2023/05/06 02:28:18;;;;;;;17.75;12.30;;;13.60;99.90;;;;;;5077245;28;20192;-80
2023/05/06 02:30:44;;;;;;;15.07;11.15;;;13.60;99.90;;;;;;5094891;28;20178;-79
2023/05/06 02:33:09;;;;;;;17.27;11.85;;;13.60;99.90;;;;;;5094496;28;20182;-79
2023/05/06 02:35:36;;;;;;;15.45;11.63;;;13.60;99.90;;;;;;5094863;28;20186;-78
2023/05/06 02:38:03;;;;;;;17.45;11.90;;;13.60;99.90;;;;;;5095948;28;20173;-78
2023/05/06 02:40:29;;;;;;;15.25;11.88;;;13.60;99.90;;;;;;5077382;28;20273;-78
2023/05/06 02:42:54;;;;;;;15.30;11.73;;;13.60;99.90;;;;;;5093973;28;20266;-78
2023/05/06 02:45:20;;;;;;;16.48;11.35;;;13.60;99.90;;;;;;5074346;28;20648;-78
2023/05/06 02:47:46;;;;;;;17.92;11.65;;;13.50;99.90;;;;;;5074279;28;20213;-78
2023/05/06 02:50:12;;;;;;;18.05;11.23;;;13.40;99.90;;;;;;5074008;28;20784;-78
2023/05/06 02:52:38;;;;;;;15.25;11.77;;;13.40;99.90;;;;;;5076018;28;20191;-78
2023/05/06 02:55:05;;;;;;;18.65;12.15;;;13.40;99.90;;;;;;5093944;28;20181;-79
2023/05/06 02:57:31;;;;;;;15.00;11.00;;;13.40;99.90;;;;;;5077530;28;20189;-79
2023/05/06 02:59:57;;;;;;;17.67;12.10;;;13.30;99.90;;;;;;5095646;28;20226;-79
2023/05/06 03:02:22;;;;;;;16.60;11.75;;;13.30;99.90;;;;;;5101791;28;20650;-79
2023/05/06 03:04:48;;;;;;;17.10;12.32;;;13.30;99.90;;;;;;5093758;28;20222;-79
2023/05/06 03:07:14;;;;;;;16.08;12.05;;;13.30;99.90;;;;;;5077539;28;20198;-79
2023/05/06 03:09:40;;;;;;;18.33;13.00;;;13.30;99.90;;;;;;5094275;28;20212;-79
2023/05/06 03:12:06;;;;;;;17.98;13.05;;;13.30;99.90;;;;;;5077490;28;20186;-78
2023/05/06 03:14:31;;;;;;;17.65;12.65;;;13.20;99.90;;;;;;5077166;28;20239;-78
2023/05/06 03:16:58;;;;;;;17.13;12.63;;;13.20;99.90;;;;;;5094187;28;20190;-79
2023/05/06 03:19:24;;;;;;;18.27;14.20;;;13.20;99.90;;;;;;5081589;28;20256;-78
2023/05/06 03:21:50;;;;;;;18.33;13.45;;;13.20;99.90;;;;;;5089904;28;20194;-78
2023/05/06 03:24:18;;;;;;;17.42;13.40;;;13.20;99.90;;;;;;5083415;28;20269;-78
2023/05/06 03:26:44;;;;;;;16.67;12.70;;;13.20;99.90;;;;;;5076802;28;20189;-78
2023/05/06 03:29:11;;;;;;;16.67;12.82;;;13.20;99.90;;;;;;5077320;28;20678;-78
2023/05/06 03:31:37;;;;;;;19.50;12.95;;;13.20;99.90;;;;;;5093655;28;20186;-77
2023/05/06 03:34:03;;;;;;;21.58;13.10;;;13.10;99.90;;;;;;5076890;28;20292;-78
2023/05/06 03:36:30;;;;;;;18.27;13.00;;;13.10;99.90;;;;;;5093485;28;20261;-78
2023/05/06 03:38:56;;;;;;;20.38;13.98;;;13.10;99.90;;;;;;5077191;28;20178;-79
2023/05/06 03:41:23;;;;;;;22.55;14.07;;;13.10;99.90;;;;;;5093171;28;20710;-79
2023/05/06 03:43:49;;;;;;;21.38;14.93;;;13.10;99.90;;;;;;5076700;28;20205;-78
2023/05/06 03:46:18;;;;;;;21.83;14.65;;;13.00;99.90;;;;;;5076682;28;20189;-79
2023/05/06 03:48:44;;;;;;;24.33;15.20;;;13.00;99.90;;;;;;5059929;28;20286;-80
2023/05/06 03:51:13;;;;;;;27.30;18.40;;;12.90;99.90;;;;;;5076618;28;20277;-79
2023/05/06 03:53:40;;;;;;;28.60;20.58;;;12.90;99.90;;;;;;5076448;28;20228;-79
2023/05/06 03:56:06;;;;;;;28.33;20.05;;;12.90;99.90;;;;;;5076048;28;20553;-79
2023/05/06 03:58:33;;;;;;;26.50;19.70;;;12.80;99.90;;;;;;5093672;28;20233;-79
2023/05/06 04:01:00;;;;;;;28.58;20.67;;;12.80;99.90;;;;;;5092917;28;20276;-80
2023/05/06 04:03:26;;;;;;;28.02;20.80;;;12.80;99.90;;;;;;5073220;28;20186;-79
2023/05/06 04:05:53;;;;;;;24.38;19.17;;;12.80;99.90;;;;;;5059778;28;20662;-79
2023/05/06 04:08:24;;;;;;;33.58;19.83;;;12.80;99.90;;;;;;5073685;28;20178;-79
2023/05/06 04:10:49;;;;;;;25.35;18.75;;;12.80;99.90;;;;;;5072963;28;20682;-79
2023/05/06 04:13:26;;;;;;;27.27;20.02;;;12.80;99.90;;;;;;5076707;28;20635;-79
2023/05/06 04:15:52;;;;;;;26.25;20.27;;;12.70;99.90;;;;;;5092565;28;20221;-78
2023/05/06 04:18:24;;;;;;;33.72;21.05;;;12.70;99.90;;;;;;5092888;28;20268;-80
2023/05/06 04:20:59;;;;;;;32.42;23.42;;;12.70;99.90;;;;;;5080885;28;20179;-79
2023/05/06 04:23:25;;;;;;;41.45;27.85;;;12.70;99.90;;;;;;5061746;28;20234;-80
2023/05/06 04:25:51;;;;;;;37.42;27.15;;;12.70;99.90;;;;;;5068743;28;20177;-79
2023/05/06 04:28:20;;;;;;;33.08;25.27;;;12.70;99.90;;;;;;5072910;28;20265;-80
2023/05/06 04:30:49;;;;;;;35.65;24.58;;;12.60;99.90;;;;;;5093823;28;20559;-79
2023/05/06 04:33:16;;;;;;;34.65;24.13;;;12.60;99.90;;;;;;5058454;28;20860;-82
2023/05/06 04:35:52;;;;;;;32.05;24.80;;;12.60;99.90;;;;;;5074684;28;20189;-79
2023/05/06 04:38:20;;;;;;;33.17;24.23;;;12.60;99.90;;;;;;5072519;28;20647;-79
2023/05/06 04:40:47;;;;;;;30.70;22.48;;;12.70;99.90;;;;;;5091741;28;20174;-79
2023/05/06 04:43:13;;;;;;;29.13;20.48;;;12.60;99.90;;;;;;5088907;28;20316;-80
2023/05/06 04:45:44;;;;;;;28.42;20.52;;;12.70;99.90;;;;;;5070199;28;20182;-85
2023/05/06 04:48:10;;;;;;;30.02;21.38;;;12.70;99.90;;;;;;5091411;28;20478;-80
2023/05/06 04:50:36;;;;;;;31.30;21.02;;;12.70;99.90;;;;;;5057812;28;20214;-78
2023/05/06 04:53:02;;;;;;;36.75;20.05;;;12.70;99.90;;;;;;5092295;28;20182;-79
2023/05/06 04:55:28;;;;;;;31.02;19.10;;;12.70;99.90;;;;;;5089626;28;20190;-80
2023/05/06 04:57:54;;;;;;;35.22;18.73;;;12.70;99.90;;;;;;5093269;28;20185;-80
2023/05/06 05:00:21;;;;;;;28.05;17.48;;;12.70;99.90;;;;;;5088030;28;20230;-79
2023/05/06 05:02:47;;;;;;;33.55;17.75;;;12.70;99.90;;;;;;5071893;28;20192;-79
2023/05/06 05:05:14;;;;;;;30.90;16.95;;;12.70;99.90;;;;;;5082379;28;20705;-79
2023/05/06 05:07:43;;;;;;;35.13;16.98;;;12.60;99.90;;;;;;5079177;28;20182;-80
2023/05/06 05:10:09;;;;;;;27.23;15.63;;;12.60;99.90;;;;;;5090491;28;20208;-78
2023/05/06 05:12:36;;;;;;;37.10;15.82;;;12.60;99.90;;;;;;5070218;28;20183;-80
2023/05/06 05:15:02;;;;;;;31.55;15.27;;;12.60;99.90;;;;;;5066277;28;20712;-80
2023/05/06 05:17:28;;;;;;;27.98;14.98;;;12.70;99.90;;;;;;5062621;28;20179;-79
2023/05/06 05:19:55;;;;;;;28.23;14.90;;;12.70;99.90;;;;;;5075398;28;20255;-81
2023/05/06 05:22:21;;;;;;;41.83;16.35;;;12.70;99.90;;;;;;5090120;28;20213;-81
2023/05/06 05:24:47;;;;;;;42.92;15.38;;;12.70;99.90;;;;;;5091723;28;20260;-79
2023/05/06 05:27:13;;;;;;;44.00;17.33;;;12.70;99.90;;;;;;5091124;28;20174;-80
2023/05/06 05:29:39;;;;;;;41.03;16.35;;;12.70;99.90;;;;;;5089578;28;20220;-79
2023/05/06 05:32:06;;;;;;;40.97;16.45;;;12.70;99.90;;;;;;5073543;28;20205;-79
2023/05/06 05:34:33;;;;;;;36.45;15.98;;;12.80;99.90;;;;;;5089782;28;20238;-80
2023/05/06 05:36:59;;;;;;;36.10;15.35;;;12.80;99.90;;;;;;5074419;28;20182;-78
2023/05/06 05:39:25;;;;;;;32.88;15.45;;;12.80;99.90;;;;;;5076918;28;20190;-79
2023/05/06 05:41:52;;;;;;;28.67;15.80;;;12.80;99.90;;;;;;5083453;28;20182;-79
2023/05/06 05:44:18;;;;;;;31.42;16.05;;;12.90;99.90;;;;;;5086892;28;20190;-87
2023/05/06 05:46:43;;;;;;;34.42;20.05;;;12.90;99.90;;;;;;5060110;28;20603;-81
2023/05/06 05:49:12;;;;;;;33.28;19.40;;;12.90;99.90;;;;;;5094972;28;20240;-78
2023/05/06 05:51:39;;;;;;;36.13;21.33;;;12.90;99.90;;;;;;5077855;28;20588;-80
2023/05/06 05:54:09;;;;;;;42.53;24.48;;;12.90;99.90;;;;;;5076620;28;20269;-80
2023/05/06 05:56:36;;;;;;;46.63;26.83;;;12.90;99.90;;;;;;5044726;28;20196;-78
2023/05/06 05:59:02;;;;;;;36.78;25.27;;;13.00;99.90;;;;;;5074254;28;20231;-78
2023/05/06 06:01:28;;;;;;;35.85;25.83;;;13.00;99.90;;;;;;5090755;28;20189;-77
2023/05/06 06:03:55;;;;;;;34.97;26.35;;;13.00;99.90;;;;;;5094270;28;20186;-79
2023/05/06 06:06:22;;;;;;;33.30;23.40;;;13.00;99.90;;;;;;5075137;28;20648;-79
2023/05/06 06:08:49;;;;;;;26.60;18.88;;;13.00;99.90;;;;;;5069832;28;20202;-78
2023/05/06 06:11:15;;;;;;;27.65;17.75;;;13.00;99.90;;;;;;5081738;28;20181;-79
2023/05/06 06:13:41;;;;;;;23.50;16.85;;;13.00;99.90;;;;;;5094430;28;20616;-79
2023/05/06 06:16:07;;;;;;;22.25;16.20;;;13.10;99.90;;;;;;5073287;28;20277;-79
2023/05/06 06:18:33;;;;;;;21.52;15.40;;;13.10;99.90;;;;;;5087835;28;20683;-79
2023/05/06 06:20:59;;;;;;;24.08;16.77;;;13.10;99.90;;;;;;5093804;28;20336;-78
2023/05/06 06:23:25;;;;;;;26.48;16.35;;;13.20;99.90;;;;;;5086152;28;20179;-80
2023/05/06 06:25:50;;;;;;;23.58;17.08;;;13.20;99.90;;;;;;5058383;28;20191;-78
2023/05/06 06:28:16;;;;;;;25.77;16.27;;;13.20;99.90;;;;;;5059821;28;20179;-85
2023/05/06 06:30:43;;;;;;;23.98;16.33;;;13.20;99.90;;;;;;5059618;28;20249;-80
2023/05/06 06:33:09;;;;;;;23.30;16.75;;;13.20;99.90;;;;;;5110252;28;20652;-78
2023/05/06 06:35:35;;;;;;;23.77;16.08;;;13.20;99.90;;;;;;5056631;28;20191;-77
2023/05/06 06:38:01;;;;;;;21.83;16.30;;;13.20;99.90;;;;;;5075126;28;20197;-78
2023/05/06 06:40:27;;;;;;;24.35;16.95;;;13.20;99.90;;;;;;5093571;28;20186;-77
2023/05/06 06:42:53;;;;;;;23.95;16.33;;;13.30;99.90;;;;;;5085689;28;20523;-79
2023/05/06 06:45:48;;;;;;;23.48;16.55;;;13.30;99.90;;;;;;5070535;28;20190;-78
2023/05/06 06:48:15;;;;;;;22.13;15.60;;;13.30;99.90;;;;;;5073633;28;20193;-77
2023/05/06 06:50:44;;;;;;;22.85;15.93;;;13.30;99.90;;;;;;5064915;28;20210;-78
2023/05/06 06:53:10;;;;;;;24.45;16.25;;;13.40;99.90;;;;;;5090896;28;20213;-78
2023/05/06 06:55:35;;;;;;;25.15;16.60;;;13.40;99.90;;;;;;5092947;28;20202;-80
2023/05/06 06:58:01;;;;;;;24.02;16.10;;;13.40;99.90;;;;;;5091866;28;20261;-78
2023/05/06 07:00:27;;;;;;;23.60;15.18;;;13.40;99.90;;;;;;5082302;28;20342;-77
2023/05/06 07:02:53;;;;;;;23.83;15.95;;;13.50;99.90;;;;;;5094610;28;20698;-77
2023/05/06 07:05:19;;;;;;;22.70;16.27;;;13.50;99.90;;;;;;5094675;28;20528;-76
2023/05/06 07:07:45;;;;;;;26.55;16.52;;;13.50;99.90;;;;;;5092393;28;20182;-76
2023/05/06 07:10:10;;;;;;;25.52;17.13;;;13.50;99.90;;;;;;5093090;28;20234;-76
2023/05/06 07:12:36;;;;;;;23.80;17.17;;;13.50;99.90;;;;;;5074802;28;20198;-78
2023/05/06 07:15:05;;;;;;;22.40;15.85;;;13.50;99.90;;;;;;5093270;28;20186;-77
2023/05/06 07:17:32;;;;;;;25.52;16.75;;;13.50;99.90;;;;;;5090148;28;20178;-76
2023/05/06 07:19:58;;;;;;;22.50;16.58;;;13.50;99.90;;;;;;5075696;28;20182;-78
2023/05/06 07:22:24;;;;;;;23.33;15.77;;;13.50;99.90;;;;;;5084131;28;20250;-76
2023/05/06 07:24:50;;;;;;;21.95;15.77;;;13.60;99.90;;;;;;5071050;28;20186;-76
2023/05/06 07:27:16;;;;;;;23.00;15.13;;;13.60;99.90;;;;;;5075448;28;20197;-77
2023/05/06 07:29:41;;;;;;;24.05;17.13;;;13.60;99.90;;;;;;5075884;28;20201;-77
2023/05/06 07:32:07;;;;;;;28.88;20.00;;;13.60;99.90;;;;;;5092144;28;20623;-79
2023/05/06 07:34:34;;;;;;;26.63;19.45;;;13.60;99.90;;;;;;5055472;28;20174;-79
2023/05/06 07:37:00;;;;;;;32.58;22.27;;;13.60;99.90;;;;;;5080134;28;20190;-78
2023/05/06 07:39:26;;;;;;;29.38;20.88;;;13.60;99.90;;;;;;5092575;28;22067;-77
2023/05/06 07:41:52;;;;;;;29.30;19.40;;;13.60;99.90;;;;;;5092859;28;20696;-76
2023/05/06 07:44:18;;;;;;;25.67;18.95;;;13.60;99.90;;;;;;5093701;28;20212;-77
2023/05/06 07:46:43;;;;;;;23.85;16.58;;;13.60;99.90;;;;;;5091236;28;20270;-76
2023/05/06 07:49:09;;;;;;;24.30;16.08;;;13.60;99.90;;;;;;5073385;28;20237;-77
2023/05/06 07:51:35;;;;;;;24.20;17.25;;;13.60;99.90;;;;;;5083225;28;20205;-78
2023/05/06 07:54:01;;;;;;;25.45;16.33;;;13.70;99.90;;;;;;5092703;28;20177;-77
2023/05/06 07:56:26;;;;;;;25.30;17.25;;;13.70;99.90;;;;;;5092529;28;20254;-77
2023/05/06 07:58:53;;;;;;;23.63;17.35;;;13.70;99.90;;;;;;5092099;28;20205;-79
2023/05/06 08:01:18;;;;;;;26.90;18.08;;;13.80;99.90;;;;;;5090410;28;20231;-77
2023/05/06 08:03:44;;;;;;;23.35;17.25;;;13.90;99.90;;;;;;5092846;28;20182;-80
2023/05/06 08:06:10;;;;;;;25.98;18.67;;;13.90;99.90;;;;;;5092576;28;20182;-78
2023/05/06 08:08:36;;;;;;;25.45;17.73;;;14.00;99.90;;;;;;5078505;28;20611;-78
2023/05/06 08:11:02;;;;;;;23.95;17.17;;;14.00;99.90;;;;;;5085190;28;20709;-77
2023/05/06 08:13:27;;;;;;;26.65;17.90;;;14.10;99.90;;;;;;5091901;28;20174;-78
2023/05/06 08:15:54;;;;;;;24.95;17.42;;;14.20;99.90;;;;;;5093053;28;20181;-77
2023/05/06 08:18:19;;;;;;;26.75;18.77;;;14.30;99.90;;;;;;5071929;28;20187;-78
2023/05/06 08:20:45;;;;;;;25.70;17.13;;;14.30;99.90;;;;;;5089926;28;20639;-77
2023/05/06 08:23:11;;;;;;;26.77;17.77;;;14.40;99.90;;;;;;5074332;28;20196;-78
2023/05/06 08:25:37;;;;;;;27.83;18.10;;;14.50;99.90;;;;;;5070763;28;20231;-80
2023/05/06 08:28:03;;;;;;;27.33;18.08;;;14.60;99.90;;;;;;5046140;28;20190;-84
2023/05/06 08:30:28;;;;;;;29.42;18.33;;;14.80;99.90;;;;;;5066498;28;20687;-90
2023/05/06 08:32:54;;;;;;;25.17;17.75;;;15.00;99.90;;;;;;5055368;28;20194;-79
2023/05/06 08:35:20;;;;;;;31.02;17.85;;;15.20;99.90;;;;;;5071381;28;20273;-76
2023/05/06 08:37:46;;;;;;;25.15;17.25;;;15.40;99.90;;;;;;5092945;28;20177;-77
2023/05/06 08:40:21;;;;;;;21.77;15.65;;;15.70;99.90;;;;;;5091158;28;20696;-79
2023/05/06 08:42:48;;;;;;;21.02;15.13;;;15.80;99.90;;;;;;5087157;28;20213;-75
2023/05/06 08:45:16;;;;;;;22.00;15.52;;;16.00;99.90;;;;;;5091758;28;20193;-81
2023/05/06 08:47:46;;;;;;;19.15;14.02;;;16.20;99.90;;;;;;5090228;28;20194;-78
2023/05/06 08:50:12;;;;;;;19.15;12.95;;;16.30;99.90;;;;;;5092808;28;20206;-84
2023/05/06 08:52:38;;;;;;;15.43;11.50;;;16.50;99.90;;;;;;5091738;28;20524;-79
2023/05/06 08:55:05;;;;;;;19.48;13.32;;;16.50;99.90;;;;;;5092167;28;20204;-79
2023/05/06 08:57:33;;;;;;;18.95;12.73;;;16.60;99.90;;;;;;5091384;28;20194;-79
2023/05/06 08:59:59;;;;;;;15.52;11.60;;;16.60;99.90;;;;;;5080134;28;20226;-83
2023/05/06 09:02:26;;;;;;;17.05;12.30;;;16.60;99.90;;;;;;5071096;28;20285;-79
2023/05/06 09:04:53;;;;;;;16.55;12.25;;;16.70;99.90;;;;;;5088564;28;20216;-78
2023/05/06 09:07:20;;;;;;;19.80;13.52;;;16.80;99.90;;;;;;5070408;28;20240;-79
2023/05/06 09:09:47;;;;;;;20.50;14.00;;;16.90;99.90;;;;;;5084844;28;20288;-80
2023/05/06 09:12:13;;;;;;;18.08;13.07;;;17.00;99.90;;;;;;5092624;28;20197;-80
2023/05/06 09:14:40;;;;;;;17.88;12.90;;;17.10;99.90;;;;;;5079148;28;20254;-79
2023/05/06 09:17:27;;;;;;;15.73;11.98;;;17.10;99.90;;;;;;5088072;28;20189;-79
2023/05/06 09:19:58;;;;;;;17.67;12.63;;;17.10;99.90;;;;;;5071936;28;20182;-79
2023/05/06 09:22:26;;;;;;;16.77;12.45;;;17.20;99.90;;;;;;5092117;28;20166;-81
2023/05/06 09:24:57;;;;;;;16.90;12.02;;;17.40;99.90;;;;;;5096123;28;20278;-79
2023/05/06 09:27:31;;;;;;;15.18;12.05;;;17.50;99.90;;;;;;5097023;28;20170;-79
2023/05/06 09:30:11;;;;;;;17.58;12.10;;;17.60;99.90;;;;;;5082775;28;20211;-79
2023/05/06 09:32:37;;;;;;;11.85;9.07;;;17.70;99.90;;;;;;5089815;28;20186;-79
2023/05/06 09:35:03;;;;;;;10.93;8.48;;;17.80;99.90;;;;;;5089618;28;20281;-79
2023/05/06 09:37:29;;;;;;;16.50;9.18;;;17.90;99.90;;;;;;5094284;28;20526;-80
2023/05/06 09:39:57;;;;;;;13.48;10.43;;;18.00;99.90;;;;;;5096176;28;20215;-79
2023/05/06 09:42:25;;;;;;;13.73;9.77;;;18.00;99.90;;;;;;5096353;28;20170;-81
2023/05/06 09:44:55;;;;;;;14.60;11.13;;;18.10;99.90;;;;;;5093156;28;20615;-80
2023/05/06 09:47:23;;;;;;;18.63;12.57;;;18.20;99.90;;;;;;5094866;28;20170;-79
2023/05/06 09:49:49;;;;;;;14.75;11.27;;;18.20;99.90;;;;;;5092990;28;20220;-79
2023/05/06 09:52:16;;;;;;;15.63;11.55;;;18.30;99.90;;;;;;5094553;28;20182;-80
2023/05/06 09:54:45;;;;;;;16.73;12.60;;;18.30;99.90;;;;;;5069158;28;20191;-79
2023/05/06 09:57:14;;;;;;;15.02;11.88;;;18.40;99.90;;;;;;5093081;28;20182;-80
2023/05/06 09:59:42;;;;;;;15.05;11.35;;;18.50;99.90;;;;;;5084810;28;20221;-79
2023/05/06 10:02:09;;;;;;;15.38;11.45;;;18.60;99.90;;;;;;5096093;28;20182;-79
2023/05/06 10:04:38;;;;;;;15.43;11.18;;;18.80;99.90;;;;;;5095638;28;20206;-79
2023/05/06 10:07:12;;;;;;;14.93;11.82;;;18.80;99.90;;;;;;5093406;28;20260;-79
2023/05/06 10:09:39;;;;;;;17.40;12.18;;;18.90;99.90;;;;;;5094165;28;20209;-79
2023/05/06 10:12:07;;;;;;;16.88;12.90;;;19.00;99.90;;;;;;5095761;28;20189;-79
2023/05/06 10:14:36;;;;;;;18.35;13.77;;;19.10;99.90;;;;;;5094391;28;20185;-78
2023/05/06 10:17:10;;;;;;;18.38;12.65;;;19.10;99.90;;;;;;5093272;28;20713;-79
2023/05/06 10:19:41;;;;;;;17.17;13.35;;;19.00;99.90;;;;;;5087236;28;20265;-78
2023/05/06 10:22:53;;;;;;;19.30;13.63;;;18.90;99.90;;;;;;5094671;28;20269;-78
2023/05/06 10:25:38;;;;;;;19.30;13.60;;;19.00;99.90;;;;;;5028319;28;20247;-80
2023/05/06 10:28:06;;;;;;;17.20;12.95;;;19.10;99.90;;;;;;5094800;28;20658;-79
2023/05/06 10:30:36;;;;;;;16.27;13.50;;;19.10;99.90;;;;;;5093760;28;20208;-79
2023/05/06 10:33:05;;;;;;;17.90;13.23;;;19.10;99.90;;;;;;5076978;28;20178;-80
2023/05/06 10:35:40;;;;;;;17.60;13.52;;;19.10;99.90;;;;;;5095445;28;20614;-79
2023/05/06 10:38:28;;;;;;;18.40;13.68;;;19.20;99.90;;;;;;5092665;28;20173;-79
2023/05/06 10:40:55;;;;;;;17.65;13.48;;;19.20;99.90;;;;;;5073686;28;20243;-79
2023/05/06 10:43:30;;;;;;;19.20;13.80;;;19.20;99.90;;;;;;5094754;28;20193;-79
2023/05/06 10:46:00;;;;;;;16.50;12.57;;;19.20;99.90;;;;;;5093089;28;20169;-79
2023/05/06 10:48:27;;;;;;;15.55;12.02;;;19.30;99.90;;;;;;5092517;28;20242;-79
2023/05/06 10:51:15;;;;;;;15.93;11.35;;;19.40;99.90;;;;;;5092662;28;20217;-79
2023/05/06 10:53:55;;;;;;;14.52;10.45;;;19.60;99.90;;;;;;5080684;28;20194;-79
2023/05/06 10:56:21;;;;;;;15.18;11.05;;;19.70;99.90;;;;;;5094713;28;20192;-78
2023/05/06 10:58:47;;;;;;;17.15;11.30;;;19.80;99.90;;;;;;5090790;28;20178;-79
2023/05/06 11:01:14;;;;;;;12.80;10.25;;;19.80;99.90;;;;;;5094465;28;20174;-79
2023/05/06 11:03:44;;;;;;;13.77;11.18;;;19.70;99.90;;;;;;5094258;28;20186;-79
2023/05/06 11:06:10;;;;;;;16.10;10.75;;;19.70;99.90;;;;;;5094147;28;20585;-81
2023/05/06 11:08:36;;;;;;;14.02;10.18;;;19.70;99.90;;;;;;5092475;28;20185;-79
2023/05/06 11:11:44;;;;;;;15.10;10.80;;;19.70;99.90;;;;;;5094576;28;20201;-78
2023/05/06 11:14:14;;;;;;;15.27;10.95;;;19.70;99.90;;;;;;5093462;28;20347;-79
2023/05/06 11:16:50;;;;;;;13.48;11.02;;;19.70;99.90;;;;;;5093761;28;20178;-80
2023/05/06 11:19:33;;;;;;;15.10;11.85;;;19.70;99.90;;;;;;5092167;28;20692;-79
2023/05/06 11:22:00;;;;;;;15.27;11.05;;;19.70;99.90;;;;;;5092424;28;20182;-79
2023/05/06 11:24:27;;;;;;;15.93;11.43;;;19.70;99.90;;;;;;5094308;28;20257;-79
2023/05/06 11:26:54;;;;;;;13.65;11.25;;;19.60;99.90;;;;;;5093466;28;20186;-79
2023/05/06 11:29:21;;;;;;;16.17;11.68;;;19.60;99.90;;;;;;5087683;28;20348;-79
2023/05/06 11:31:47;;;;;;;18.60;12.15;;;19.50;99.90;;;;;;5077779;28;20186;-79
2023/05/06 11:34:22;;;;;;;14.75;11.07;;;19.50;99.90;;;;;;5094267;28;20205;-79
2023/05/06 11:36:51;;;;;;;16.02;11.00;;;19.50;99.90;;;;;;5076072;28;20181;-79
2023/05/06 11:39:17;;;;;;;13.68;10.40;;;19.50;99.90;;;;;;5090728;28;20293;-78
2023/05/06 11:41:43;;;;;;;15.68;10.38;;;19.40;99.90;;;;;;5074517;28;20628;-78
2023/05/06 11:44:11;;;;;;;12.77;10.52;;;19.40;99.90;;;;;;5072892;28;20261;-80
2023/05/06 11:46:37;;;;;;;13.65;10.13;;;19.40;99.90;;;;;;5076284;28;20182;-79
2023/05/06 11:49:03;;;;;;;13.88;10.38;;;19.30;99.90;;;;;;5087226;28;20251;-78
2023/05/06 11:51:28;;;;;;;12.23;10.25;;;19.30;99.90;;;;;;5091839;28;20181;-79
2023/05/06 11:54:09;;;;;;;11.68;9.45;;;19.30;99.90;;;;;;5076180;28;20224;-80
2023/05/06 11:56:51;;;;;;;11.95;9.57;;;19.20;99.90;;;;;;5090303;28;20286;-78
2023/05/06 11:59:28;;;;;;;13.25;8.80;;;19.20;99.90;;;;;;5092148;28;20228;-79
2023/05/06 12:01:57;;;;;;;14.60;9.13;;;19.10;99.90;;;;;;5092333;28;20616;-80
2023/05/06 12:04:23;;;;;;;11.57;8.48;;;19.10;99.90;;;;;;5093680;28;20189;-79
2023/05/06 12:06:48;;;;;;;11.20;8.40;;;19.00;99.90;;;;;;5090857;28;20182;-80
2023/05/06 12:09:14;;;;;;;14.63;8.70;;;19.00;99.90;;;;;;5093854;28;20204;-79
2023/05/06 12:11:42;;;;;;;12.95;8.70;;;18.90;99.90;;;;;;5086260;28;20183;-77
2023/05/06 12:14:09;;;;;;;13.15;8.60;;;18.80;99.90;;;;;;5076837;28;20183;-77
2023/05/06 12:16:36;;;;;;;14.23;10.25;;;18.70;99.90;;;;;;5089485;28;20239;-79
2023/05/06 12:19:02;;;;;;;14.77;10.35;;;18.70;99.90;;;;;;5093496;28;20243;-79
2023/05/06 12:21:29;;;;;;;17.80;11.68;;;18.60;99.90;;;;;;5091564;28;20190;-79
2023/05/06 12:23:59;;;;;;;19.65;11.68;;;18.50;99.90;;;;;;5089117;28;20726;-79
2023/05/06 12:26:30;;;;;;;19.10;10.93;;;18.40;99.90;;;;;;5090631;28;20643;-78
2023/05/06 12:29:10;;;;;;;20.95;12.68;;;18.40;99.90;;;;;;5091412;28;20362;-79
2023/05/06 12:31:37;;;;;;;21.25;14.38;;;18.20;99.90;;;;;;5093190;28;20628;-78
2023/05/06 12:34:03;;;;;;;19.75;13.98;;;18.20;99.90;;;;;;5092173;28;20649;-79